Time;durP1;ratioP1;P1;durP2;ratioP2;P2;SDS_P1;SDS_P2;PMS_P1;PMS_P2;Temp;Humidity;BMP_temperature;BMP_pressure;BME280_temperature;BME280_humidity;BME280_pressure;Samples;Min_cycle;Max_cycle;Signal;HPM_P1;HPM_P2
2021/07/09 00:01:49;;;;;;;;;;;;;;;-142.75;67.01;77497.56;5071641;28;20280;-77
2021/07/09 00:04:15;;;;;;;;;;;;;;;-142.75;67.39;77515.28;5072367;28;20015;-78
2021/07/09 00:06:41;;;;;;;;;;;;;;;-142.75;67.54;77523.16;5064471;28;20027;-78
2021/07/09 00:09:06;;;;;;;;;;;;;;;-142.75;67.68;77517.25;5072102;28;20012;-78
2021/07/09 00:11:32;;;;;;;;;;;;;;;-142.75;67.77;77509.38;5065013;28;19917;-77
2021/07/09 00:13:58;;;;;;;;;;;;;;;-142.75;67.91;77499.53;5072141;28;19921;-77
2021/07/09 00:16:23;;;;;;;;;;;;;;;-142.75;68.61;77505.44;5060779;28;19923;-77
2021/07/09 00:18:49;;;;;;;;;;;;;;;-142.75;68.37;77513.31;5072684;28;20281;-78
2021/07/09 00:21:14;;;;;;;;;;;;;;;-142.75;68.24;77519.22;5058877;28;20389;-78
2021/07/09 00:23:40;;;;;;;;;;;;;;;-142.75;68.64;77523.16;5072187;28;20409;-76
2021/07/09 00:26:05;;;;;;;;;;;;;;;-142.75;69.11;77527.09;5072028;28;19921;-77
2021/07/09 00:28:31;;;;;;;;;;;;;;;-142.75;69.35;77527.09;5066408;28;20493;-77
2021/07/09 00:30:57;;;;;;;;;;;;;;;-142.75;68.66;77527.09;5064615;28;20374;-77
2021/07/09 00:33:22;;;;;;;;;;;;;;;-142.75;68.42;77529.06;5072340;28;19925;-78
2021/07/09 00:39:03;;;;;;;;;;;;;;;-142.75;68.21;77527.09;5071897;28;19924;-78
2021/07/09 00:41:28;;;;;;;;;;;;;;;-142.75;68.47;77523.16;5071690;28;19924;-79
2021/07/09 00:43:53;;;;;;;;;;;;;;;-142.75;68.47;77538.91;5062738;28;19924;-78
2021/07/09 00:46:32;;;;;;;;;;;;;;;-142.75;68.46;77542.84;5071543;28;20293;-78
2021/07/09 00:48:57;;;;;;;;;;;;;;;-142.75;68.73;77546.78;5072209;28;19916;-78
2021/07/09 00:51:23;;;;;;;;;;;;;;;-142.75;68.98;77527.09;5071149;28;19924;-77
2021/07/09 00:53:48;;;;;;;;;;;;;;;-142.75;67.96;77533.00;5079613;28;19920;-77
2021/07/09 00:56:13;;;;;;;;;;;;;;;-142.75;68.18;77550.72;5071302;28;20007;-77
2021/07/09 00:58:38;;;;;;;;;;;;;;;-142.75;68.75;77562.53;5071276;28;19921;-78
2021/07/09 01:01:03;;;;;;;;;;;;;;;-142.75;69.45;77574.34;5059142;28;19993;-77
2021/07/09 01:03:29;;;;;;;;;;;;;;;-142.75;70.24;77570.41;5071215;28;20336;-77
2021/07/09 01:05:54;;;;;;;;;;;;;;;-142.75;70.69;77572.38;5071283;28;20021;-78
2021/07/09 01:08:19;;;;;;;;;;;;;;;-142.75;70.21;77568.44;5071245;28;20007;-77
2021/07/09 01:10:46;;;;;;;;;;;;;;;-142.75;70.03;77576.31;5071007;28;19916;-78
2021/07/09 01:13:11;;;;;;;;;;;;;;;-142.75;69.71;77592.06;5065546;28;19935;-77
2021/07/09 01:15:36;;;;;;;;;;;;;;;-142.75;69.96;77594.03;5071274;28;19920;-78
2021/07/09 01:18:02;;;;;;;;;;;;;;;-142.75;70.05;77594.03;5060691;28;19916;-78
2021/07/09 01:20:28;;;;;;;;;;;;;;;-142.75;70.27;77594.03;5070909;28;19916;-76
2021/07/09 01:22:55;;;;;;;;;;;;;;;-142.75;70.66;77586.16;5064470;28;20484;-77
2021/07/09 01:25:22;;;;;;;;;;;;;;;-142.75;70.11;77596.00;5058091;28;19956;-78
2021/07/09 01:27:57;;;;;;;;;;;;;;;-142.75;70.29;77613.72;5070932;28;19923;-77
2021/07/09 01:30:23;;;;;;;;;;;;;;;-142.75;70.10;77621.59;5071190;28;19923;-79
2021/07/09 01:32:50;;;;;;;;;;;;;;;-142.75;70.96;77637.34;5061992;28;19920;-78
2021/07/09 01:35:15;;;;;;;;;;;;;;;-142.75;71.30;77641.28;5071202;28;19921;-75
2021/07/09 01:37:41;;;;;;;;;;;;;;;-142.75;70.90;77637.34;5071371;28;19984;-77
2021/07/09 01:40:07;;;;;;;;;;;;;;;-142.75;71.12;77633.41;5065636;28;19942;-77
2021/07/09 01:42:33;;;;;;;;;;;;;;;-142.75;71.33;77625.53;5071363;28;19925;-76
2021/07/09 01:44:58;;;;;;;;;;;;;;;-142.75;70.87;77619.63;5058898;28;20011;-77
2021/07/09 01:47:23;;;;;;;;;;;;;;;-142.75;70.62;77613.72;5071575;28;20274;-79
2021/07/09 01:49:51;;;;;;;;;;;;;;;-142.75;69.81;77609.78;5071556;28;19916;-76
2021/07/09 01:52:16;;;;;;;;;;;;;;;-142.75;69.38;77617.66;5071166;28;19916;-78
2021/07/09 01:54:42;;;;;;;;;;;;;;;-142.75;69.04;77635.38;5071130;28;20015;-76
2021/07/09 01:57:07;;;;;;;;;;;;;;;-142.75;69.56;77649.16;5060418;28;19916;-77
2021/07/09 01:59:32;;;;;;;;;;;;;;;-142.75;69.99;77649.16;5070949;28;20008;-76
2021/07/09 02:01:57;;;;;;;;;;;;;;;-142.75;71.01;77649.16;5070712;28;19924;-76
2021/07/09 02:04:22;;;;;;;;;;;;;;;-142.75;71.50;77655.06;5062854;28;20334;-78
2021/07/09 02:06:48;;;;;;;;;;;;;;;-142.75;72.00;77651.13;5059316;28;19932;-77
2021/07/09 02:09:13;;;;;;;;;;;;;;;-142.75;72.45;77653.09;5070940;28;19931;-77
2021/07/09 02:11:38;;;;;;;;;;;;;;;-142.75;72.45;77655.06;5070754;28;19924;-77
2021/07/09 02:14:03;;;;;;;;;;;;;;;-142.75;72.55;77651.13;5071393;28;19920;-78
2021/07/09 02:16:28;;;;;;;;;;;;;;;-142.75;73.00;77643.25;5060948;28;20401;-77
2021/07/09 02:18:54;;;;;;;;;;;;;;;-142.75;73.62;77627.50;5065407;28;20310;-76
2021/07/09 02:21:19;;;;;;;;;;;;;;;-142.75;73.18;77633.41;5069837;28;19923;-76
2021/07/09 02:23:45;;;;;;;;;;;;;;;-142.75;73.24;77619.63;5070744;28;19920;-77
2021/07/09 02:26:10;;;;;;;;;;;;;;;-142.75;73.37;77597.97;5070439;28;19916;-78
2021/07/09 02:28:35;;;;;;;;;;;;;;;-142.75;72.74;77601.91;5070921;28;19920;-77
2021/07/09 02:31:00;;;;;;;;;;;;;;;-142.75;71.50;77617.66;5067466;28;19916;-77
2021/07/09 02:33:25;;;;;;;;;;;;;;;-142.75;71.31;77631.44;5069678;28;19917;-76
2021/07/09 02:35:51;;;;;;;;;;;;;;;-142.75;71.49;77635.38;5068561;28;19968;-77
2021/07/09 02:38:16;;;;;;;;;;;;;;;-142.75;74.79;77601.91;5074701;28;19946;-77
2021/07/09 02:40:42;;;;;;;;;;;;;;;-142.75;75.63;77586.16;5073821;28;19923;-78
2021/07/09 02:43:07;;;;;;;;;;;;;;;-142.75;75.05;77584.19;5071282;28;19917;-79
2021/07/09 02:45:32;;;;;;;;;;;;;;;-142.75;73.63;77601.91;5064554;28;19924;-77
2021/07/09 02:47:58;;;;;;;;;;;;;;;-142.75;72.23;77625.53;5074660;28;20011;-78
2021/07/09 02:50:24;;;;;;;;;;;;;;;-142.75;72.10;77633.41;5074575;28;19916;-76
2021/07/09 02:52:50;;;;;;;;;;;;;;;-142.75;71.87;77641.28;5074492;28;20001;-77
2021/07/09 02:55:17;;;;;;;;;;;;;;;-142.75;72.07;77645.22;5074077;28;19921;-77
2021/07/09 02:57:42;;;;;;;;;;;;;;;-142.75;72.31;77649.16;5074572;28;20385;-78
2021/07/09 03:00:10;;;;;;;;;;;;;;;-142.75;72.41;77625.53;5056985;28;19924;-77
2021/07/09 03:02:35;;;;;;;;;;;;;;;-142.75;71.38;77647.19;5074406;28;19952;-79
2021/07/09 03:05:00;;;;;;;;;;;;;;;-142.75;71.29;77653.09;5074941;28;19924;-77
2021/07/09 03:07:26;;;;;;;;;;;;;;;-142.75;71.47;77649.16;5074747;28;20367;-77
2021/07/09 03:09:51;;;;;;;;;;;;;;;-142.75;71.60;77659.00;5068200;28;20436;-77
2021/07/09 03:12:16;;;;;;;;;;;;;;;-142.75;72.55;77662.94;5074859;28;20012;-78
2021/07/09 03:14:41;;;;;;;;;;;;;;;-142.75;72.85;77670.81;5073832;28;19966;-78
2021/07/09 03:17:07;;;;;;;;;;;;;;;-142.75;73.13;77676.72;5073315;28;19916;-77
2021/07/09 03:19:32;;;;;;;;;;;;;;;-142.75;73.18;77678.69;5063626;28;19956;-78
2021/07/09 03:21:57;;;;;;;;;;;;;;;-142.75;73.21;77674.75;5082650;22;19929;-77
2021/07/09 03:24:22;;;;;;;;;;;;;;;-142.75;73.51;77676.72;5040427;28;19927;-76
2021/07/09 03:26:47;;;;;;;;;;;;;;;-142.75;74.44;77662.94;5041906;28;19927;-76
2021/07/09 03:29:13;;;;;;;;;;;;;;;-142.75;74.30;77645.22;5059472;28;19924;-76
2021/07/09 03:31:38;;;;;;;;;;;;;;;-142.75;73.40;77660.97;5058454;28;19916;-76
2021/07/09 03:34:03;;;;;;;;;;;;;;;-142.75;72.76;77674.75;5058806;28;19921;-75
2021/07/09 03:36:29;;;;;;;;;;;;;;;-142.75;72.49;77676.72;5059022;28;19948;-77
2021/07/09 03:38:55;;;;;;;;;;;;;;;-142.75;71.96;77674.75;5057694;28;19917;-76
2021/07/09 03:41:20;;;;;;;;;;;;;;;-142.75;72.15;77678.69;5040377;28;19931;-76
2021/07/09 03:43:46;;;;;;;;;;;;;;;-142.75;72.12;77680.66;5045121;28;19966;-76
2021/07/09 03:46:11;;;;;;;;;;;;;;;-142.75;72.36;77672.78;5079122;28;19916;-76
2021/07/09 03:48:37;;;;;;;;;;;;;;;-142.75;72.22;77672.78;5078820;28;19924;-77
2021/07/09 03:51:02;;;;;;;;;;;;;;;-142.75;72.25;77668.84;5077612;28;20350;-76
2021/07/09 03:53:28;;;;;;;;;;;;;;;-142.75;72.17;77672.78;5078607;28;19920;-76
2021/07/09 03:55:53;;;;;;;;;;;;;;;-142.75;72.42;77670.81;5077641;28;19920;-76
2021/07/09 03:58:18;;;;;;;;;;;;;;;-142.75;72.55;77668.84;5058450;28;19947;-77
2021/07/09 04:00:43;;;;;;;;;;;;;;;-142.75;74.44;77659.00;5040884;28;19917;-76
2021/07/09 04:03:09;;;;;;;;;;;;;;;-142.75;73.73;77655.06;5039894;28;19924;-76
2021/07/09 04:05:34;;;;;;;;;;;;;;;-142.75;73.53;77649.16;5040460;28;19924;-76
2021/07/09 04:07:59;;;;;;;;;;;;;;;-142.75;73.26;77647.19;5040261;28;19916;-76
2021/07/09 04:10:24;;;;;;;;;;;;;;;-142.75;72.96;77649.16;5057860;28;20031;-77
2021/07/09 04:12:49;;;;;;;;;;;;;;;-142.75;73.00;77647.19;5058046;28;19928;-75
2021/07/09 04:15:15;;;;;;;;;;;;;;;-142.75;72.64;77649.16;5067340;28;19920;-76
2021/07/09 04:17:40;;;;;;;;;;;;;;;-142.75;72.72;77637.34;5077819;28;19984;-76
2021/07/09 04:20:06;;;;;;;;;;;;;;;-142.75;72.60;77631.44;5060485;28;19916;-76
2021/07/09 04:22:31;;;;;;;;;;;;;;;-142.75;72.77;77623.56;5059941;28;19923;-75
2021/07/09 04:24:57;;;;;;;;;;;;;;;-142.75;72.97;77611.75;5060613;28;19917;-76
2021/07/09 04:27:22;;;;;;;;;;;;;;;-142.75;72.79;77597.97;5077384;28;19931;-76
2021/07/09 04:29:47;;;;;;;;;;;;;;;-142.75;73.00;77605.84;5059071;28;19920;-76
2021/07/09 04:32:12;;;;;;;;;;;;;;;-142.75;72.67;77601.91;5076542;28;19916;-77
2021/07/09 04:34:38;;;;;;;;;;;;;;;-142.75;72.67;77592.06;5077655;28;20405;-76
2021/07/09 04:37:08;;;;;;;;;;;;;;;-142.75;72.43;77586.16;5077760;28;19928;-76
2021/07/09 04:39:33;;;;;;;;;;;;;;;-142.75;72.50;77576.31;5059469;28;19916;-76
2021/07/09 04:41:59;;;;;;;;;;;;;;;-142.75;72.48;77566.47;5076057;28;19943;-76
2021/07/09 04:44:24;;;;;;;;;;;;;;;-142.75;72.76;77552.69;5047958;28;19917;-75
2021/07/09 04:46:49;;;;;;;;;;;;;;;-142.75;72.76;77533.00;5058426;28;19963;-77
2021/07/09 04:49:14;;;;;;;;;;;;;;;-142.75;73.53;77521.19;5074840;28;19916;-76
2021/07/09 04:51:39;;;;;;;;;;;;;;;-142.75;74.31;77505.44;5074446;28;19931;-76
2021/07/09 04:54:04;;;;;;;;;;;;;;;-142.75;74.18;77491.66;5058816;28;19960;-76
2021/07/09 04:56:30;;;;;;;;;;;;;;;-142.75;73.96;77462.13;5057610;28;19916;-75
2021/07/09 04:58:55;;;;;;;;;;;;;;;-142.75;73.68;77452.25;5076047;28;19924;-76
2021/07/09 05:01:20;;;;;;;;;;;;;;;-142.75;73.29;77442.41;5057452;28;20292;-76
2021/07/09 05:03:45;;;;;;;;;;;;;;;-142.75;73.20;77422.72;5075106;28;19956;-76
2021/07/09 05:06:10;;;;;;;;;;;;;;;-142.75;73.22;77401.06;5058761;28;19923;-76
2021/07/09 05:08:35;;;;;;;;;;;;;;;-142.75;72.71;77401.06;5076003;28;19943;-75
2021/07/09 05:11:02;;;;;;;;;;;;;;;-142.75;72.53;77387.28;5072680;28;20313;-76
2021/07/09 05:13:27;;;;;;;;;;;;;;;-142.75;71.99;77365.63;5039737;28;19917;-76
2021/07/09 05:15:52;;;;;;;;;;;;;;;-142.75;71.51;77351.84;5057589;28;19927;-76
2021/07/09 05:18:17;;;;;;;;;;;;;;;-142.75;71.25;77332.16;5040051;28;19920;-75
2021/07/09 05:20:43;;;;;;;;;;;;;;;-142.75;70.46;77322.31;5059484;28;21115;-77
2021/07/09 05:23:08;;;;;;;;;;;;;;;-142.75;70.25;77308.53;5041130;28;19964;-77
2021/07/09 05:25:33;;;;;;;;;;;;;;;-142.75;69.80;77286.88;5058550;28;19948;-77
2021/07/09 05:27:58;;;;;;;;;;;;;;;-142.75;69.21;77271.13;5056893;28;19917;-76
2021/07/09 05:30:24;;;;;;;;;;;;;;;-142.75;68.69;77257.34;5058483;28;19956;-76
2021/07/09 05:32:49;;;;;;;;;;;;;;;-142.75;68.37;77225.84;5056769;28;19916;-76
2021/07/09 05:35:14;;;;;;;;;;;;;;;-142.75;67.79;77202.22;5040918;28;20104;-76
2021/07/09 05:37:40;;;;;;;;;;;;;;;-142.75;67.19;77172.69;5057922;28;19944;-77
2021/07/09 05:40:05;;;;;;;;;;;;;;;-142.75;66.72;77153.00;5057721;28;19917;-76
2021/07/09 05:42:31;;;;;;;;;;;;;;;-142.75;66.22;77119.53;5059490;28;19983;-76
2021/07/09 05:44:56;;;;;;;;;;;;;;;-142.75;65.51;77103.78;5077776;28;20003;-77
2021/07/09 05:47:21;;;;;;;;;;;;;;;-142.75;64.77;77076.22;5077854;28;19924;-76
2021/07/09 05:49:47;;;;;;;;;;;;;;;-142.75;64.72;77040.78;5077911;28;20043;-75
2021/07/09 05:52:12;;;;;;;;;;;;;;;-142.75;63.88;77023.06;5073667;28;20398;-75
2021/07/09 05:54:37;;;;;;;;;;;;;;;-142.75;62.90;76975.81;5058176;28;19921;-77
2021/07/09 05:57:03;;;;;;;;;;;;;;;-142.75;62.16;76942.34;5040704;28;19924;-75
2021/07/09 05:59:28;;;;;;;;;;;;;;;-142.75;61.26;76885.25;5062252;28;20000;-76
2021/07/09 06:01:54;;;;;;;;;;;;;;;-142.75;59.72;76838.00;5063732;28;19924;-76
2021/07/09 06:04:19;;;;;;;;;;;;;;;-142.75;58.40;76834.06;5060359;28;19916;-77
2021/07/09 06:06:44;;;;;;;;;;;;;;;-142.75;59.28;76830.13;5054943;28;19923;-77
2021/07/09 06:09:09;;;;;;;;;;;;;;;-142.75;58.75;76834.06;5072204;28;19964;-77
2021/07/09 06:11:35;;;;;;;;;;;;;;;-142.75;58.76;76845.88;5071533;28;19955;-76
2021/07/09 06:14:01;;;;;;;;;;;;;;;-142.75;59.01;76865.56;5071929;28;19916;-76
2021/07/09 06:16:26;;;;;;;;;;;;;;;-142.75;59.17;76849.81;5067609;28;19923;-77
2021/07/09 06:18:51;;;;;;;;;;;;;;;-142.75;58.42;76816.34;5054337;28;19931;-76
2021/07/09 06:21:17;;;;;;;;;;;;;;;-142.75;57.87;76780.94;5037049;28;20378;-75
2021/07/09 06:23:42;;;;;;;;;;;;;;;-142.75;56.39;76778.97;5065316;28;19946;-77
2021/07/09 06:26:07;;;;;;;;;;;;;;;-142.75;56.57;76777.00;5072266;28;19920;-76
2021/07/09 06:28:33;;;;;;;;;;;;;;;-142.75;56.92;76763.22;5044083;28;19924;-75
2021/07/09 06:30:58;;;;;;;;;;;;;;;-142.75;55.76;76714.00;5061180;28;19921;-76
2021/07/09 06:33:23;;;;;;;;;;;;;;;-142.75;55.13;76676.59;5069798;28;20394;-77
2021/07/09 06:35:48;;;;;;;;;;;;;;;-142.75;54.44;76625.41;5037346;28;19925;-77
2021/07/09 06:38:13;;;;;;;;;;;;;;;-142.75;52.45;76586.03;5051491;28;19930;-76
2021/07/09 06:40:39;;;;;;;;;;;;;;;-142.75;52.82;76534.84;5051091;28;20226;-77
2021/07/09 06:43:04;;;;;;;;;;;;;;;-142.75;51.75;76497.47;5052842;28;19955;-77
2021/07/09 06:45:29;;;;;;;;;;;;;;;-142.75;51.30;76499.44;5045172;28;19917;-77
2021/07/09 06:47:55;;;;;;;;;;;;;;;-142.75;52.03;76499.44;5066155;28;19931;-76
2021/07/09 06:50:20;;;;;;;;;;;;;;;-142.75;51.07;76505.34;5049661;28;19917;-78
2021/07/09 06:52:45;;;;;;;;;;;;;;;-142.75;50.99;76475.81;5040454;28;19917;-78
2021/07/09 06:55:11;;;;;;;;;;;;;;;-142.75;50.37;76456.13;5038276;28;19921;-77
2021/07/09 06:57:36;;;;;;;;;;;;;;;-142.75;50.16;76379.34;5058404;28;19928;-77
2021/07/09 07:00:03;;;;;;;;;;;;;;;-142.75;48.50;76341.97;5068835;28;20039;-76
2021/07/09 07:02:28;;;;;;;;;;;;;;;-142.75;47.49;76284.88;5049262;28;19920;-75
2021/07/09 07:04:53;;;;;;;;;;;;;;;-142.75;46.71;76251.41;5055845;28;19923;-76
2021/07/09 07:07:18;;;;;;;;;;;;;;;-142.75;45.30;76235.66;5052830;28;19927;-76
2021/07/09 07:09:44;;;;;;;;;;;;;;;-142.75;45.54;76190.41;5066638;28;20390;-77
2021/07/09 07:12:09;;;;;;;;;;;;;;;-142.75;44.89;76158.91;5031622;28;19927;-77
2021/07/09 07:14:35;;;;;;;;;;;;;;;-142.75;45.65;76168.75;5063407;28;19927;-78
2021/07/09 07:17:00;;;;;;;;;;;;;;;-142.75;45.12;76117.56;5057249;28;20310;-77
2021/07/09 07:19:25;;;;;;;;;;;;;;;-142.75;44.59;76093.94;5055205;28;19923;-78
2021/07/09 07:21:51;;;;;;;;;;;;;;;-142.75;43.07;76046.72;5054397;28;19923;-79
2021/07/09 07:24:16;;;;;;;;;;;;;;;-142.75;43.69;76202.19;5058810;28;20313;-76
2021/07/09 07:26:42;;;;;;;;;;;;;;;-142.75;43.65;76066.41;5063961;28;20388;-78
2021/07/09 07:29:07;;;;;;;;;;;;;;;-142.75;42.57;75975.84;5051032;28;20509;-78
2021/07/09 07:31:33;;;;;;;;;;;;;;;-142.75;41.69;75905.00;5067332;28;19921;-77
2021/07/09 07:33:58;;;;;;;;;;;;;;;-142.75;40.58;75834.16;5053559;28;20289;-77
2021/07/09 07:36:23;;;;;;;;;;;;;;;-142.75;40.25;75826.28;5062210;28;19956;-78
2021/07/09 07:38:49;;;;;;;;;;;;;;;-142.75;39.88;75869.56;5067870;28;19928;-76
2021/07/09 07:41:14;;;;;;;;;;;;;;;-142.75;39.42;75908.94;5052226;28;20398;-76
2021/07/09 07:43:42;;;;;;;;;;;;;;;-142.75;39.99;75887.28;5058523;28;19921;-76
2021/07/09 07:46:08;;;;;;;;;;;;;;;-142.75;40.82;75895.16;5060682;28;19921;-75
2021/07/09 07:48:33;;;;;;;;;;;;;;;-142.75;39.45;75824.31;5063756;28;19916;-77
2021/07/09 07:50:59;;;;;;;;;;;;;;;-142.75;39.93;75912.88;5039463;28;20547;-75
2021/07/09 07:53:24;;;;;;;;;;;;;;;-142.75;39.96;75834.16;5051056;28;19966;-78
2021/07/09 07:55:49;;;;;;;;;;;;;;;-142.75;40.47;75873.50;5063359;28;19927;-78
2021/07/09 07:58:14;;;;;;;;;;;;;;;-142.75;38.97;75765.25;5057015;28;19981;-76
2021/07/09 08:00:39;;;;;;;;;;;;;;;-142.75;38.64;75767.22;5053137;28;20015;-76
2021/07/09 08:03:04;;;;;;;;;;;;;;;-142.75;38.56;75716.06;5054407;28;19923;-78
2021/07/09 08:05:30;;;;;;;;;;;;;;;-142.75;37.46;75682.59;5067592;28;19982;-77
2021/07/09 08:07:55;;;;;;;;;;;;;;;-142.75;37.53;75757.41;5058786;28;19928;-76
2021/07/09 08:10:20;;;;;;;;;;;;;;;-142.75;38.08;75842.03;5071402;28;19924;-76
2021/07/09 08:12:45;;;;;;;;;;;;;;;-142.75;39.78;75942.41;5067408;28;19927;-76
2021/07/09 08:15:10;;;;;;;;;;;;;;;-142.75;39.58;75903.03;5053594;28;20333;-75
2021/07/09 08:17:36;;;;;;;;;;;;;;;-142.75;38.46;75784.94;5053661;28;19917;-77
2021/07/09 08:20:01;;;;;;;;;;;;;;;-142.75;37.82;75794.78;5054217;28;19931;-77
2021/07/09 08:22:26;;;;;;;;;;;;;;;-142.75;40.00;75952.25;5058040;28;19917;-75
2021/07/09 08:24:51;;;;;;;;;;;;;;;-142.75;40.17;75920.75;5067504;28;20006;-75
2021/07/09 08:27:17;;;;;;;;;;;;;;;-142.75;40.18;75944.38;5036799;28;20324;-74
2021/07/09 08:29:42;;;;;;;;;;;;;;;-142.75;39.86;75914.84;5037430;28;19928;-74
2021/07/09 08:32:08;;;;;;;;;;;;;;;-142.75;38.88;75830.22;5032862;28;20007;-74
2021/07/09 08:34:33;;;;;;;;;;;;;;;-142.75;39.39;75796.75;5053940;28;19921;-72
2021/07/09 08:36:58;;;;;;;;;;;;;;;-142.75;37.57;75828.25;5032692;28;19974;-74
2021/07/09 08:39:24;;;;;;;;;;;;;;;-142.75;39.23;75908.94;5035621;28;21647;-74
2021/07/09 08:41:49;;;;;;;;;;;;;;;-142.75;39.73;75849.91;5041272;28;20344;-75
2021/07/09 08:44:15;;;;;;;;;;;;;;;-142.75;37.41;75804.63;5053606;28;19952;-75
2021/07/09 08:46:40;;;;;;;;;;;;;;;-142.75;38.07;75816.44;5054262;28;19917;-74
2021/07/09 08:49:07;;;;;;;;;;;;;;;-142.75;38.69;75802.66;5071607;28;19925;-75
2021/07/09 08:51:33;;;;;;;;;;;;;;;-142.75;37.88;75704.25;5043104;28;19951;-74
2021/07/09 08:53:58;;;;;;;;;;;;;;;-142.75;36.96;75597.97;5034020;28;19985;-74
2021/07/09 08:56:24;;;;;;;;;;;;;;;-142.75;36.89;75582.25;5054264;28;20394;-75
2021/07/09 08:58:49;;;;;;;;;;;;;;;-142.75;35.37;75487.78;5066686;28;19924;-75
2021/07/09 09:01:14;;;;;;;;;;;;;;;-142.75;33.89;75407.09;5037465;28;20007;-72
2021/07/09 09:03:40;;;;;;;;;;;;;;;-142.75;33.41;75340.19;5053371;28;19920;-73
2021/07/09 09:06:10;;;;;;;;;;;;;;;-142.75;33.66;75381.50;5071037;28;19947;-74
2021/07/09 09:08:35;;;;;;;;;;;;;;;-142.75;34.68;75440.53;5056216;28;20018;-75
2021/07/09 09:11:01;;;;;;;;;;;;;;;-142.75;36.03;75475.97;5054803;28;19942;-75
2021/07/09 09:13:30;;;;;;;;;;;;;;;-142.75;35.29;75558.63;5054608;28;19924;-75
2021/07/09 09:16:01;;;;;;;;;;;;;;;-142.75;35.46;75674.72;5054315;28;20317;-75
2021/07/09 09:18:30;;;;;;;;;;;;;;;-142.75;36.49;75761.34;5053620;28;19924;-74
2021/07/09 09:21:00;;;;;;;;;;;;;;;-142.75;37.80;75802.66;5053493;28;19916;-73
2021/07/09 09:23:26;;;;;;;;;;;;;;;-142.75;37.51;75792.81;5071007;28;19917;-75
2021/07/09 09:25:52;;;;;;;;;;;;;;;-142.75;38.40;75891.22;5054028;28;20057;-73
2021/07/09 09:28:18;;;;;;;;;;;;;;;-142.75;39.80;75938.47;5055586;28;19978;-75
2021/07/09 09:30:45;;;;;;;;;;;;;;;-142.75;38.25;75771.16;5072664;28;19924;-74
2021/07/09 09:33:11;;;;;;;;;;;;;;;-142.75;37.11;75627.50;5074064;28;19916;-78
2021/07/09 09:35:44;;;;;;;;;;;;;;;-142.75;36.41;75625.53;5048970;28;20006;-75
2021/07/09 09:38:11;;;;;;;;;;;;;;;-142.75;37.08;75849.91;5050765;28;19917;-75
2021/07/09 09:40:37;;;;;;;;;;;;;;;-142.75;36.18;75751.50;5054736;28;19920;-76
2021/07/09 09:43:10;;;;;;;;;;;;;;;-142.75;36.44;75751.50;5043005;28;19917;-75
2021/07/09 09:45:35;;;;;;;;;;;;;;;-142.75;36.29;75597.97;5032820;28;19924;-76
2021/07/09 09:48:05;;;;;;;;;;;;;;;-142.75;34.85;75544.84;5052896;28;19929;-77
2021/07/09 09:50:30;;;;;;;;;;;;;;;-142.75;34.66;75389.38;5071155;28;19962;-77
2021/07/09 09:52:56;;;;;;;;;;;;;;;-142.75;33.40;75353.97;5071682;28;19916;-77
2021/07/09 09:55:23;;;;;;;;;;;;;;;-142.75;31.98;75389.38;5052740;28;19956;-75
2021/07/09 09:58:06;;;;;;;;;;;;;;;-142.75;34.23;75550.75;5053804;28;20015;-76
2021/07/09 10:00:31;;;;;;;;;;;;;;;-142.75;33.88;75428.75;5052584;28;19916;-76
2021/07/09 10:02:56;;;;;;;;;;;;;;;-142.75;32.62;75389.38;5070196;28;19973;-75
2021/07/09 10:05:22;;;;;;;;;;;;;;;-142.75;33.24;75367.72;5070462;28;20301;-75
2021/07/09 10:07:47;;;;;;;;;;;;;;;-142.75;32.10;75389.38;5052797;28;19973;-75
2021/07/09 10:10:14;;;;;;;;;;;;;;;-142.75;33.91;75434.66;5068157;28;20378;-75
2021/07/09 10:12:41;;;;;;;;;;;;;;;-142.75;34.27;75558.63;5070639;28;19916;-75
2021/07/09 10:15:06;;;;;;;;;;;;;;;-142.75;34.58;75615.69;5052954;28;20394;-75
2021/07/09 10:17:32;;;;;;;;;;;;;;;-142.75;34.74;75647.19;5050813;28;19932;-76
2021/07/09 10:19:58;;;;;;;;;;;;;;;-142.75;35.09;75586.19;5069725;28;19927;-75
2021/07/09 10:22:24;;;;;;;;;;;;;;;-142.75;34.46;75434.66;5069869;28;19916;-76
2021/07/09 10:24:50;;;;;;;;;;;;;;;-142.75;35.33;75611.75;5070886;28;20008;-76
2021/07/09 10:27:20;;;;;;;;;;;;;;;-142.75;32.72;75393.31;5070791;28;19927;-77
2021/07/09 10:29:46;;;;;;;;;;;;;;;-142.75;33.51;75414.97;5053002;28;19916;-75
2021/07/09 10:32:11;;;;;;;;;;;;;;;-142.75;33.66;75373.63;5069682;28;19923;-75
2021/07/09 10:34:38;;;;;;;;;;;;;;;-142.75;32.75;75257.53;5067037;28;19932;-74
2021/07/09 10:37:03;;;;;;;;;;;;;;;-142.75;31.33;75200.47;5068816;28;19967;-76
2021/07/09 10:39:31;;;;;;;;;;;;;;;-142.75;32.59;75214.25;5051903;28;20341;-76
2021/07/09 10:41:56;;;;;;;;;;;;;;;-142.75;31.08;75291.00;5068317;28;19921;-76
2021/07/09 10:44:21;;;;;;;;;;;;;;;-142.75;33.42;75330.34;5052335;28;20003;-76
2021/07/09 10:46:49;;;;;;;;;;;;;;;-142.75;33.19;75491.72;5070077;28;19921;-75
2021/07/09 10:49:54;;;;;;;;;;;;;;;-142.75;33.79;75411.03;5070539;28;20397;-75
2021/07/09 10:52:38;;;;;;;;;;;;;;;-142.75;33.78;75454.31;5074171;28;20011;-74
2021/07/09 10:55:23;;;;;;;;;;;;;;;-142.75;33.74;75584.22;5074015;28;19927;-75
2021/07/09 10:58:06;;;;;;;;;;;;;;;-142.75;33.84;75414.97;5056220;28;19921;-75
2021/07/09 11:00:47;;;;;;;;;;;;;;;-142.75;32.73;75456.28;5073659;28;20066;-75
2021/07/09 11:03:26;;;;;;;;;;;;;;;-142.75;34.16;75550.75;5055767;28;19922;-76
2021/07/09 11:05:52;;;;;;;;;;;;;;;-142.75;34.64;75350.03;5073093;28;19924;-75
2021/07/09 11:08:29;;;;;;;;;;;;;;;-142.75;34.44;75645.22;5053735;28;19921;-76
2021/07/09 11:10:58;;;;;;;;;;;;;;;-142.75;35.46;75621.59;5055194;28;19917;-76
2021/07/09 11:13:42;;;;;;;;;;;;;;;-142.75;35.42;75566.50;5054009;28;19978;-77
2021/07/09 11:16:27;;;;;;;;;;;;;;;-142.75;35.64;75668.84;5054465;28;19970;-75
2021/07/09 11:19:05;;;;;;;;;;;;;;;-142.75;35.08;75554.69;5072895;28;20030;-75
2021/07/09 11:21:30;;;;;;;;;;;;;;;-142.75;34.91;75442.50;5072773;28;19959;-75
2021/07/09 11:23:58;;;;;;;;;;;;;;;-142.75;33.16;75434.66;5073696;28;19952;-76
2021/07/09 11:26:24;;;;;;;;;;;;;;;-142.75;34.75;75460.22;5073218;28;19924;-75
2021/07/09 11:28:50;;;;;;;;;;;;;;;-142.75;33.59;75505.50;5073223;28;19916;-75
2021/07/09 11:31:34;;;;;;;;;;;;;;;-142.75;33.50;75432.69;5073508;28;19931;-76
2021/07/09 11:34:00;;;;;;;;;;;;;;;-142.75;33.60;75460.22;5073507;28;20421;-75
2021/07/09 11:36:25;;;;;;;;;;;;;;;-142.75;34.24;75580.28;5073625;28;19968;-76
2021/07/09 11:39:07;;;;;;;;;;;;;;;-142.75;36.54;75844.00;5073419;28;20339;-77
2021/07/09 11:41:33;;;;;;;;;;;;;;;-142.75;36.30;75812.50;5073273;28;19975;-75
2021/07/09 11:43:59;;;;;;;;;;;;;;;-142.75;36.97;75790.84;5073677;28;19921;-74
2021/07/09 11:46:24;;;;;;;;;;;;;;;-142.75;36.22;75830.22;5035947;28;19916;-76
2021/07/09 11:48:49;;;;;;;;;;;;;;;-142.75;37.30;75962.09;5055018;28;19917;-75
2021/07/09 11:51:14;;;;;;;;;;;;;;;-142.75;36.86;75936.50;5073040;28;20054;-75
2021/07/09 11:53:39;;;;;;;;;;;;;;;-142.75;36.09;75869.56;5073235;28;19927;-75
2021/07/09 11:56:17;;;;;;;;;;;;;;;-142.75;36.52;75753.47;5073228;28;19928;-75
2021/07/09 11:58:42;;;;;;;;;;;;;;;-142.75;36.08;75775.09;5073161;28;19962;-76
2021/07/09 12:01:15;;;;;;;;;;;;;;;-142.75;36.01;75694.41;5071164;28;19928;-75
2021/07/09 12:03:47;;;;;;;;;;;;;;;-142.75;36.19;75763.28;5054653;28;19931;-75
2021/07/09 12:06:21;;;;;;;;;;;;;;;-142.75;36.73;75802.66;5072575;28;20011;-74
2021/07/09 12:08:56;;;;;;;;;;;;;;;-142.75;36.54;75879.41;5072785;28;19916;-75
2021/07/09 12:11:21;;;;;;;;;;;;;;;-142.75;36.79;75875.47;5072567;28;20373;-78
2021/07/09 12:14:03;;;;;;;;;;;;;;;-142.75;37.29;75838.09;5054716;28;19927;-75
2021/07/09 12:16:28;;;;;;;;;;;;;;;-142.75;37.62;75775.09;5072449;28;19929;-77
2021/07/09 12:18:53;;;;;;;;;;;;;;;-142.75;36.83;75885.31;5072857;28;20676;-76
2021/07/09 12:21:18;;;;;;;;;;;;;;;-142.75;38.40;75934.53;5070369;28;19920;-75
2021/07/09 12:23:43;;;;;;;;;;;;;;;-142.75;38.67;75893.19;5072246;28;19916;-76
2021/07/09 12:26:09;;;;;;;;;;;;;;;-142.75;37.89;75928.63;5071811;28;19924;-75
2021/07/09 12:28:35;;;;;;;;;;;;;;;-142.75;38.30;75952.25;5072382;28;19959;-76